createdAt,value
2019-03-19T00:00:58.891Z,7.06
2019-03-19T00:03:29.884Z,6.89
2019-03-19T00:06:01.977Z,6.91
2019-03-19T00:08:33.969Z,6.92
2019-03-19T00:11:06.303Z,6.77
2019-03-19T00:13:38.023Z,6.78
2019-03-19T00:16:09.124Z,6.81
2019-03-19T00:18:41.338Z,6.91
2019-03-19T00:21:12.682Z,6.72
2019-03-19T00:23:43.914Z,6.75
2019-03-19T00:26:14.904Z,6.71
2019-03-19T00:28:46.330Z,6.78
2019-03-19T00:31:17.560Z,6.78
2019-03-19T00:33:48.587Z,6.47
2019-03-19T00:36:19.923Z,6.63
2019-03-19T00:38:52.028Z,6.73
2019-03-19T00:41:23.245Z,6.63
2019-03-19T00:43:54.346Z,6.72
2019-03-19T00:46:25.356Z,6.55
2019-03-19T00:48:56.805Z,6.59
2019-03-19T00:51:28.719Z,6.44
2019-03-19T00:53:59.708Z,6.42
2019-03-19T00:56:30.766Z,6.74
2019-03-19T00:59:02.111Z,6.63
2019-03-19T01:01:33.410Z,6.55
2019-03-19T01:04:04.785Z,6.66
2019-03-19T01:06:36.750Z,6.60
2019-03-19T01:09:08.621Z,6.44
2019-03-19T01:11:39.607Z,6.48
2019-03-19T01:14:10.981Z,6.45
2019-03-19T01:16:42.213Z,6.56
2019-03-19T01:19:13.234Z,6.58
2019-03-19T01:21:44.257Z,6.60
2019-03-19T01:24:15.306Z,6.59
2019-03-19T01:26:46.721Z,6.44
2019-03-19T01:29:17.960Z,6.49
2019-03-19T01:31:49.197Z,6.41
2019-03-19T01:34:21.083Z,6.29
2019-03-19T01:36:52.060Z,6.36
2019-03-19T01:39:23.116Z,6.29
2019-03-19T01:41:54.642Z,6.42
2019-03-19T01:44:26.640Z,6.32
2019-03-19T01:46:57.714Z,6.51
2019-03-19T01:49:28.956Z,6.60
2019-03-19T01:52:01.558Z,6.63
2019-03-19T01:54:32.784Z,6.69
2019-03-19T01:57:04.314Z,6.54
2019-03-19T01:59:36.310Z,6.63
2019-03-19T02:02:07.685Z,6.58
2019-03-19T02:04:39.311Z,6.59
2019-03-19T02:07:11.589Z,6.59
2019-03-19T02:09:43.098Z,6.60
2019-03-19T02:12:14.776Z,6.61
2019-03-19T02:14:45.843Z,6.65
2019-03-19T02:17:17.137Z,6.74
2019-03-19T02:19:48.759Z,6.75
2019-03-19T02:22:19.797Z,6.81
2019-03-19T02:24:51.735Z,6.73
2019-03-19T02:27:23.223Z,6.86
2019-03-19T02:29:54.194Z,6.68
2019-03-19T02:32:25.792Z,6.80
2019-03-19T02:34:57.220Z,6.71
2019-03-19T02:37:28.549Z,6.77
2019-03-19T02:39:59.524Z,6.57
2019-03-19T02:42:30.940Z,6.51
2019-03-19T02:45:02.218Z,6.54
2019-03-19T02:47:33.520Z,6.66
2019-03-19T02:50:04.968Z,6.70
2019-03-19T02:52:36.876Z,6.70
2019-03-19T02:55:08.857Z,6.62
2019-03-19T02:57:40.147Z,6.65
2019-03-19T03:00:11.941Z,6.64
2019-03-19T03:02:43.633Z,6.53
2019-03-19T03:05:15.342Z,6.59
2019-03-19T03:07:47.232Z,6.58
2019-03-19T03:10:18.278Z,6.66
2019-03-19T03:12:49.868Z,6.73
2019-03-19T03:15:21.473Z,6.69
2019-03-19T03:17:53.299Z,6.78
2019-03-19T03:20:25.397Z,6.85
2019-03-19T03:22:56.856Z,6.79
2019-03-19T03:25:27.925Z,6.85
2019-03-19T03:27:59.365Z,6.93
2019-03-19T03:30:30.796Z,6.93
2019-03-19T03:33:02.279Z,6.63
2019-03-19T03:35:33.808Z,6.67
2019-03-19T03:38:05.222Z,6.77
2019-03-19T03:40:37.278Z,6.80
2019-03-19T03:43:08.459Z,6.69
2019-03-19T03:45:40.752Z,6.95
2019-03-19T03:48:12.187Z,6.87
2019-03-19T03:50:43.690Z,6.81
2019-03-19T03:53:15.298Z,6.82
2019-03-19T03:55:47.011Z,6.72
2019-03-19T03:58:18.522Z,6.55
2019-03-19T04:00:49.570Z,6.52
2019-03-19T04:03:20.570Z,6.54
2019-03-19T04:05:52.028Z,6.62
2019-03-19T04:08:23.435Z,6.64
2019-03-19T04:10:55.015Z,6.61
2019-03-19T04:13:27.155Z,6.58
2019-03-19T04:15:59.207Z,6.57
2019-03-19T04:18:30.519Z,6.56
2019-03-19T04:21:01.498Z,6.58
2019-03-19T04:23:32.476Z,6.55
2019-03-19T04:26:03.900Z,6.33
2019-03-19T04:28:35.227Z,6.40
2019-03-19T04:31:07.102Z,6.36
2019-03-19T04:33:38.683Z,6.18
2019-03-19T04:36:10.362Z,6.15
2019-03-19T04:38:41.643Z,6.08
2019-03-19T04:41:13.157Z,6.12
2019-03-19T04:43:44.130Z,6.19
2019-03-19T04:46:15.419Z,6.16
2019-03-19T04:48:46.725Z,6.24
2019-03-19T04:51:18.348Z,6.19
2019-03-19T04:53:49.981Z,6.18
2019-03-19T04:56:21.451Z,6.16
2019-03-19T04:58:52.715Z,6.16
2019-03-19T05:01:23.928Z,6.25
2019-03-19T05:03:55.158Z,6.35
2019-03-19T05:06:26.709Z,6.45
2019-03-19T05:08:58.293Z,6.40
2019-03-19T05:11:30.204Z,6.48
2019-03-19T05:14:02.061Z,6.57
2019-03-19T05:16:33.900Z,6.42
2019-03-19T05:19:05.287Z,6.39
2019-03-19T05:21:37.273Z,6.47
2019-03-19T05:24:08.639Z,6.29
2019-03-19T05:26:39.852Z,6.32
2019-03-19T05:29:11.414Z,6.41
2019-03-19T05:31:42.904Z,6.48
2019-03-19T05:34:14.554Z,6.43
2019-03-19T05:36:45.615Z,6.43
2019-03-19T05:39:17.227Z,6.59
2019-03-19T05:41:49.131Z,6.42
2019-03-19T05:44:20.691Z,6.57
2019-03-19T05:46:52.478Z,6.57
2019-03-19T05:49:24.053Z,6.68
2019-03-19T05:51:55.018Z,6.72
2019-03-19T05:54:26.360Z,6.56
2019-03-19T05:56:58.281Z,6.72
2019-03-19T05:59:29.580Z,6.62
2019-03-19T06:02:00.554Z,6.59
2019-03-19T06:04:31.852Z,6.52
2019-03-19T06:07:03.204Z,6.62
2019-03-19T06:09:34.790Z,6.73
2019-03-19T06:12:07.741Z,6.69
2019-03-19T06:14:39.292Z,6.74
2019-03-19T06:17:10.661Z,6.66
2019-03-19T06:19:41.985Z,6.55
2019-03-19T06:22:13.642Z,6.62
2019-03-19T06:24:44.687Z,6.69
2019-03-19T06:27:15.655Z,6.79
2019-03-19T06:29:47.616Z,6.90
2019-03-19T06:32:18.590Z,6.81
2019-03-19T06:34:49.988Z,6.83
2019-03-19T06:37:21.528Z,6.76
2019-03-19T06:39:52.513Z,6.71
2019-03-19T06:42:23.784Z,6.73
2019-03-19T06:44:55.153Z,6.79
2019-03-19T06:47:27.016Z,6.75
2019-03-19T06:49:58.221Z,6.79
2019-03-19T06:52:29.181Z,6.84
2019-03-19T06:55:00.529Z,6.88
2019-03-19T06:57:39.226Z,6.84
2019-03-19T07:00:10.616Z,6.80
2019-03-19T07:02:41.955Z,6.90
2019-03-19T07:05:13.925Z,6.94
2019-03-19T07:07:45.297Z,6.99
2019-03-19T07:10:17.809Z,7.01
2019-03-19T07:12:49.246Z,7.04
2019-03-19T07:15:20.455Z,7.05
2019-03-19T07:17:51.634Z,6.94
2019-03-19T07:20:22.938Z,6.99
2019-03-19T07:22:53.909Z,7.10
2019-03-19T07:25:26.511Z,7.15
2019-03-19T07:27:57.521Z,7.20
2019-03-19T07:30:28.683Z,7.24
2019-03-19T07:32:59.958Z,7.17
2019-03-19T07:38:03.188Z,7.23
2019-03-19T07:40:34.842Z,7.20
2019-03-19T07:43:06.134Z,7.29
2019-03-19T07:45:37.290Z,7.49
2019-03-19T07:48:08.811Z,7.54
2019-03-19T07:50:39.870Z,7.68
2019-03-19T07:53:11.238Z,7.65
2019-03-19T07:55:42.966Z,7.72
2019-03-19T07:58:14.486Z,7.66
2019-03-19T08:00:45.455Z,7.86
2019-03-19T08:03:16.677Z,7.94
2019-03-19T08:05:48.274Z,8.08
2019-03-19T08:08:19.300Z,8.15
2019-03-19T08:10:50.636Z,8.22
2019-03-19T08:13:21.910Z,8.37
2019-03-19T08:15:53.178Z,8.50
2019-03-19T08:18:24.385Z,8.61
2019-03-19T08:20:55.600Z,8.72
2019-03-19T08:23:27.365Z,8.87
2019-03-19T08:25:58.338Z,8.78
2019-03-19T08:28:33.859Z,8.84
2019-03-19T08:31:05.076Z,9.13
2019-03-19T08:33:37.301Z,9.28
2019-03-19T08:36:09.576Z,9.41
2019-03-19T08:38:40.864Z,9.45
2019-03-19T08:41:13.160Z,9.52
2019-03-19T08:43:44.735Z,9.60
2019-03-19T08:46:15.944Z,9.61
2019-03-19T08:48:47.523Z,9.69
2019-03-19T08:51:18.775Z,9.72
2019-03-19T08:53:50.305Z,9.94
2019-03-19T08:56:21.543Z,10.11
2019-03-19T08:58:52.805Z,10.27
2019-03-19T09:01:24.190Z,10.13
2019-03-19T09:03:55.814Z,10.09
2019-03-19T09:06:26.840Z,9.96
2019-03-19T09:08:58.118Z,10.04
2019-03-19T09:11:29.576Z,9.89
2019-03-19T09:14:00.909Z,10.04
2019-03-19T09:16:32.535Z,10.01
2019-03-19T09:19:03.849Z,9.97
2019-03-19T09:21:35.230Z,10.02
2019-03-19T09:24:07.524Z,9.83
2019-03-19T09:26:38.740Z,9.82
2019-03-19T09:29:16.859Z,9.76
2019-03-19T09:31:44.682Z,9.71
2019-03-19T09:34:17.133Z,9.85
2019-03-19T09:36:57.039Z,9.74
2019-03-19T09:39:21.390Z,9.85
2019-03-19T09:41:53.630Z,9.95
2019-03-19T09:44:24.608Z,10.02
2019-03-19T09:46:56.014Z,9.93
2019-03-19T09:49:26.993Z,9.89
2019-03-19T09:51:58.616Z,9.96
2019-03-19T09:54:29.598Z,10.10
2019-03-19T09:57:00.629Z,10.32
2019-03-19T09:59:32.228Z,10.56
2019-03-19T10:02:03.228Z,10.79
2019-03-19T10:04:34.249Z,10.89
2019-03-19T10:07:06.467Z,11.15
2019-03-19T10:09:39.290Z,11.31
2019-03-19T10:12:10.392Z,11.34
2019-03-19T10:14:42.263Z,11.62
2019-03-19T10:17:13.518Z,11.54
2019-03-19T10:19:45.189Z,11.64
2019-03-19T10:22:16.741Z,11.51
2019-03-19T10:24:48.064Z,11.57
2019-03-19T10:27:19.764Z,11.46
2019-03-19T10:29:51.195Z,11.35
2019-03-19T10:32:22.278Z,11.30
2019-03-19T10:34:53.321Z,11.18
2019-03-19T10:37:24.686Z,11.28
2019-03-19T10:39:56.218Z,11.28
2019-03-19T10:42:27.214Z,11.28
2019-03-19T10:44:58.449Z,11.16
2019-03-19T10:47:29.553Z,11.13
2019-03-19T10:50:01.434Z,11.13
2019-03-19T10:52:33.031Z,11.30
2019-03-19T10:55:04.891Z,11.32
2019-03-19T10:57:38.160Z,11.58
2019-03-19T11:00:17.694Z,11.46
2019-03-19T11:02:48.999Z,11.50
2019-03-19T11:05:20.216Z,11.54
2019-03-19T11:07:51.559Z,11.41
2019-03-19T11:10:22.968Z,11.35
2019-03-19T11:12:54.136Z,11.22
2019-03-19T11:15:26.702Z,11.16
2019-03-19T11:17:58.020Z,11.25
2019-03-19T11:20:29.277Z,11.31
2019-03-19T11:23:00.766Z,11.11
2019-03-19T11:25:32.303Z,11.05
2019-03-19T11:28:03.411Z,11.02
2019-03-19T11:30:34.803Z,11.18
2019-03-19T11:33:06.786Z,11.20
2019-03-19T11:35:37.959Z,11.31
2019-03-19T11:38:09.725Z,11.48
2019-03-19T11:40:40.718Z,11.47
2019-03-19T11:43:11.938Z,11.50
2019-03-19T11:45:42.971Z,11.64
2019-03-19T11:48:14.638Z,11.72
2019-03-19T11:50:50.398Z,11.83
2019-03-19T11:53:21.902Z,11.67
2019-03-19T11:55:53.126Z,11.78
2019-03-19T11:58:24.192Z,11.91
2019-03-19T12:00:58.300Z,11.97
2019-03-19T12:03:29.745Z,12.03
2019-03-19T12:06:00.969Z,12.07
2019-03-19T12:08:32.219Z,12.15
2019-03-19T12:11:03.527Z,12.14
2019-03-19T12:13:34.653Z,12.26
2019-03-19T12:16:05.787Z,12.35
2019-03-19T12:18:38.042Z,12.36
2019-03-19T12:21:09.754Z,12.33
2019-03-19T12:23:41.254Z,12.38
2019-03-19T12:26:12.488Z,12.25
2019-03-19T12:28:43.719Z,12.23
2019-03-19T12:31:14.689Z,12.08
2019-03-19T12:33:45.917Z,12.06
2019-03-19T12:36:17.167Z,11.97
2019-03-19T12:38:49.218Z,11.95
2019-03-19T12:41:20.209Z,12.02
2019-03-19T12:43:51.853Z,12.05
2019-03-19T12:46:23.131Z,11.81
2019-03-19T12:48:54.721Z,11.88
2019-03-19T12:51:26.964Z,11.93
2019-03-19T12:53:58.020Z,12.01
2019-03-19T12:56:28.994Z,12.13
2019-03-19T12:58:59.975Z,12.19
2019-03-19T13:01:31.371Z,12.18
2019-03-19T13:04:02.534Z,12.12
2019-03-19T13:06:33.951Z,12.28
2019-03-19T13:09:07.754Z,12.30
2019-03-19T13:11:39.721Z,12.58
2019-03-19T13:14:10.706Z,12.79
2019-03-19T13:16:42.906Z,12.93
2019-03-19T13:19:14.113Z,12.86
2019-03-19T13:21:45.099Z,12.76
2019-03-19T13:24:17.548Z,12.82
2019-03-19T13:26:49.115Z,12.84
2019-03-19T13:29:20.380Z,12.77
2019-03-19T13:31:51.917Z,12.68
2019-03-19T13:34:22.913Z,12.61
2019-03-19T13:36:54.404Z,12.68
2019-03-19T13:39:25.391Z,12.63
2019-03-19T13:41:56.367Z,12.67
2019-03-19T13:44:27.387Z,12.79
2019-03-19T13:46:58.366Z,12.93
2019-03-19T13:49:29.426Z,13.02
2019-03-19T13:52:00.808Z,12.85
2019-03-19T13:54:32.444Z,12.73
2019-03-19T13:57:03.686Z,12.58
2019-03-19T13:59:36.151Z,12.67
2019-03-19T14:02:08.448Z,12.70
2019-03-19T14:04:39.663Z,12.77
2019-03-19T14:07:10.708Z,12.73
2019-03-19T14:09:41.966Z,12.56
2019-03-19T14:12:13.043Z,12.59
2019-03-19T14:14:44.188Z,12.56
2019-03-19T14:17:15.408Z,12.51
2019-03-19T14:19:46.774Z,12.54
2019-03-19T14:22:17.799Z,12.34
2019-03-19T14:24:49.134Z,12.43
2019-03-19T14:27:20.473Z,12.49
2019-03-19T14:29:51.866Z,12.58
2019-03-19T14:32:23.373Z,12.52
2019-03-19T14:34:54.451Z,12.56
2019-03-19T14:37:26.822Z,12.59
2019-03-19T14:39:58.435Z,12.55
2019-03-19T14:42:30.917Z,12.53
2019-03-19T14:45:02.184Z,12.62
2019-03-19T14:47:33.420Z,12.73
2019-03-19T14:50:05.317Z,12.65
2019-03-19T14:52:36.571Z,12.50
2019-03-19T14:55:09.248Z,12.49
2019-03-19T14:57:40.387Z,12.35
2019-03-19T15:00:14.200Z,12.41
2019-03-19T15:02:45.499Z,12.50
2019-03-19T15:05:16.561Z,12.35
2019-03-19T15:07:48.007Z,12.49
2019-03-19T15:10:20.858Z,12.64
2019-03-19T15:12:52.115Z,12.68
2019-03-19T15:15:26.259Z,12.75
2019-03-19T15:18:01.690Z,12.56
2019-03-19T15:20:32.963Z,12.64
2019-03-19T15:23:04.111Z,12.78
2019-03-19T15:25:35.513Z,12.76
2019-03-19T15:28:06.708Z,12.69
2019-03-19T15:30:38.685Z,12.58
2019-03-19T15:33:09.694Z,12.63
2019-03-19T15:35:41.516Z,12.58
2019-03-19T15:38:12.924Z,12.60
2019-03-19T15:40:44.211Z,12.62
2019-03-19T15:43:16.242Z,12.49
2019-03-19T15:45:47.417Z,12.56
2019-03-19T15:48:19.928Z,12.60
2019-03-19T15:50:52.610Z,12.55
2019-03-19T15:53:23.890Z,12.65
2019-03-19T15:55:55.103Z,12.60
2019-03-19T15:58:27.490Z,12.51
2019-03-19T16:00:58.833Z,12.43
2019-03-19T16:03:30.159Z,12.44
2019-03-19T16:06:01.405Z,12.40
2019-03-19T16:08:32.478Z,12.45
2019-03-19T16:11:03.814Z,12.42
2019-03-19T16:13:35.055Z,12.44
2019-03-19T16:16:06.161Z,12.52
2019-03-19T16:18:37.441Z,12.47
2019-03-19T16:21:08.857Z,12.44
2019-03-19T16:23:40.155Z,12.33
2019-03-19T16:26:11.122Z,12.24
2019-03-19T16:28:42.144Z,12.16
2019-03-19T16:31:13.958Z,12.13
2019-03-19T16:33:45.222Z,12.15
2019-03-19T16:36:16.589Z,12.06
2019-03-19T16:38:47.672Z,12.04
2019-03-19T16:41:19.048Z,12.01
2019-03-19T16:43:50.037Z,12.03
2019-03-19T16:46:21.322Z,12.10
2019-03-19T16:48:52.566Z,11.92
2019-03-19T16:51:23.944Z,11.85
2019-03-19T16:53:55.084Z,11.92
2019-03-19T16:56:27.535Z,11.95
2019-03-19T16:58:59.097Z,11.94
2019-03-19T17:01:30.970Z,11.92
2019-03-19T17:04:02.147Z,11.73
2019-03-19T17:06:33.686Z,11.83
2019-03-19T17:09:08.030Z,11.86
2019-03-19T17:11:39.344Z,11.77
2019-03-19T17:14:10.766Z,11.70
2019-03-19T17:16:41.822Z,11.61
2019-03-19T17:19:13.231Z,11.67
2019-03-19T17:21:44.906Z,11.64
2019-03-19T17:24:16.138Z,11.64
2019-03-19T17:26:47.414Z,11.57
2019-03-19T17:29:18.679Z,11.49
2019-03-19T17:31:49.914Z,11.29
2019-03-19T17:34:22.252Z,11.27
2019-03-19T17:36:53.331Z,11.29
2019-03-19T17:39:24.964Z,11.28
2019-03-19T17:41:56.235Z,11.29
2019-03-19T17:44:27.687Z,11.27
2019-03-19T17:47:00.551Z,11.22
2019-03-19T17:49:34.168Z,11.10
2019-03-19T17:52:05.748Z,11.02
2019-03-19T17:54:37.310Z,11.02
2019-03-19T17:57:09.438Z,11.04
2019-03-19T17:59:40.701Z,11.05
2019-03-19T18:02:11.933Z,11.01
2019-03-19T18:04:43.198Z,10.90
2019-03-19T18:07:14.519Z,10.87
2019-03-19T18:09:46.075Z,10.84
2019-03-19T18:12:17.816Z,10.77
2019-03-19T18:14:49.083Z,10.69
2019-03-19T18:17:20.168Z,10.62
2019-03-19T18:19:52.304Z,10.54
2019-03-19T18:22:23.916Z,10.47
2019-03-19T18:24:55.536Z,10.37
2019-03-19T18:27:27.876Z,10.24
2019-03-19T18:29:59.741Z,10.09
2019-03-19T18:32:35.311Z,10.02
2019-03-19T18:35:04.099Z,9.97
2019-03-19T18:37:35.418Z,10.01
2019-03-19T18:40:07.002Z,9.97
2019-03-19T18:42:39.252Z,10.01
2019-03-19T18:45:10.563Z,9.99
2019-03-19T18:47:41.768Z,9.92
2019-03-19T18:50:14.245Z,9.92
2019-03-19T18:52:45.450Z,9.85
2019-03-19T18:55:16.610Z,9.84
2019-03-19T18:57:48.013Z,9.80
2019-03-19T19:00:19.983Z,9.78
2019-03-19T19:02:51.372Z,9.78
2019-03-19T19:05:22.895Z,9.85
2019-03-19T19:07:53.864Z,9.84
2019-03-19T19:10:24.918Z,9.76
2019-03-19T19:12:55.946Z,9.72
2019-03-19T19:15:27.813Z,9.63
2019-03-19T19:17:59.107Z,9.57
2019-03-19T19:20:30.675Z,9.56
2019-03-19T19:23:03.087Z,9.50
2019-03-19T19:25:34.419Z,9.39
2019-03-19T19:28:05.852Z,9.31
2019-03-19T19:30:36.940Z,9.29
2019-03-19T19:33:09.400Z,9.09
2019-03-19T19:35:41.165Z,9.09
2019-03-19T19:38:12.603Z,9.02
2019-03-19T19:40:43.586Z,8.94
2019-03-19T19:43:14.595Z,8.95
2019-03-19T19:45:45.627Z,8.93
2019-03-19T19:48:17.173Z,8.87
2019-03-19T19:50:48.705Z,8.81
2019-03-19T19:53:19.671Z,8.84
2019-03-19T19:55:50.975Z,8.82
2019-03-19T19:58:22.251Z,8.80
2019-03-19T20:00:53.242Z,8.67
2019-03-19T20:03:24.511Z,8.60
2019-03-19T20:05:55.587Z,8.35
2019-03-19T20:08:27.784Z,8.28
2019-03-19T20:10:58.775Z,8.31
2019-03-19T20:13:29.844Z,8.22
2019-03-19T20:16:00.830Z,8.19
2019-03-19T20:18:31.820Z,7.99
2019-03-19T20:21:03.048Z,7.93
2019-03-19T20:23:35.409Z,7.85
2019-03-19T20:26:06.827Z,7.89
2019-03-19T20:28:38.176Z,7.85
2019-03-19T20:31:09.670Z,7.75
2019-03-19T20:33:41.955Z,7.66
2019-03-19T20:36:13.309Z,7.64
2019-03-19T20:38:44.856Z,7.64
2019-03-19T20:41:15.822Z,7.40
2019-03-19T20:43:47.247Z,7.50
2019-03-19T20:46:18.608Z,7.49
2019-03-19T20:48:50.015Z,7.48
2019-03-19T20:51:21.292Z,7.56
2019-03-19T20:53:52.489Z,7.49
2019-03-19T20:56:23.722Z,7.51
2019-03-19T20:58:54.917Z,7.48
2019-03-19T21:01:26.369Z,7.30
2019-03-19T21:03:57.560Z,7.17
2019-03-19T21:06:28.525Z,7.27
2019-03-19T21:08:59.476Z,7.24
2019-03-19T21:11:30.455Z,7.19
2019-03-19T21:14:01.712Z,7.26
2019-03-19T21:16:32.867Z,7.22
2019-03-19T21:19:03.894Z,7.20
2019-03-19T21:21:35.047Z,7.22
2019-03-19T21:24:06.150Z,7.04
2019-03-19T21:26:37.394Z,7.16
2019-03-19T21:29:10.162Z,7.22
2019-03-19T21:31:41.406Z,7.24
2019-03-19T21:34:12.957Z,7.35
2019-03-19T21:36:43.939Z,7.34
2019-03-19T21:39:15.633Z,7.11
2019-03-19T21:41:46.943Z,7.04
2019-03-19T21:44:18.189Z,7.10
2019-03-19T21:46:49.256Z,6.96
2019-03-19T21:49:20.232Z,6.78
2019-03-19T21:51:51.765Z,6.77
2019-03-19T21:54:22.824Z,6.79
2019-03-19T21:56:54.054Z,6.70
2019-03-19T21:59:25.485Z,6.78
2019-03-19T22:01:56.486Z,6.82
2019-03-19T22:04:28.174Z,6.74
2019-03-19T22:06:59.175Z,6.75
2019-03-19T22:09:30.412Z,6.66
2019-03-19T22:12:01.565Z,6.63
2019-03-19T22:14:33.848Z,6.66
2019-03-19T22:17:04.923Z,6.43
2019-03-19T22:19:36.519Z,6.38
2019-03-19T22:22:07.781Z,6.60
2019-03-19T22:24:39.775Z,6.66
2019-03-19T22:27:10.820Z,6.48
2019-03-19T22:29:42.969Z,6.45
2019-03-19T22:32:14.025Z,6.40
2019-03-19T22:34:44.992Z,6.51
2019-03-19T22:37:16.431Z,6.52
2019-03-19T22:39:48.017Z,6.35
2019-03-19T22:42:18.999Z,6.31
2019-03-19T22:44:49.964Z,6.23
2019-03-19T22:47:21.008Z,6.36
2019-03-19T22:49:52.030Z,6.28
2019-03-19T22:52:23.328Z,6.31
2019-03-19T22:54:54.621Z,6.24
2019-03-19T22:57:25.607Z,6.04
2019-03-19T22:59:56.847Z,6.22
2019-03-19T23:02:28.660Z,6.08
2019-03-19T23:04:59.713Z,6.15
2019-03-19T23:07:31.078Z,6.14
2019-03-19T23:10:02.285Z,6.01
2019-03-19T23:12:33.335Z,6.03
2019-03-19T23:15:05.019Z,5.94
2019-03-19T23:17:36.517Z,5.96
2019-03-19T23:20:08.224Z,5.96
2019-03-19T23:22:40.177Z,5.98
2019-03-19T23:25:11.777Z,5.85
2019-03-19T23:27:44.218Z,5.89
2019-03-19T23:30:15.944Z,5.81
2019-03-19T23:32:47.274Z,5.75
2019-03-19T23:35:18.245Z,5.87
2019-03-19T23:37:49.309Z,5.79
2019-03-19T23:40:20.926Z,5.91
2019-03-19T23:42:52.651Z,5.92
2019-03-19T23:45:24.178Z,5.96
2019-03-19T23:47:55.476Z,5.81
2019-03-19T23:50:26.445Z,5.68
2019-03-19T23:52:57.745Z,5.84
2019-03-19T23:55:29.284Z,5.80
2019-03-19T23:58:00.329Z,5.87
